Latest Weather Observations for St George

IDQ60801

Issued at 10:02 am EST Tuesday 7 December 2021 (issued every 10 minutes, with the page automatically refreshed every 10 minutes)

About weather observations | Map of weather stations | Latest weather observations for QLD | Other Formats
Station Details ID: 043109 Name: ST GEORGE AIRPORT Lat: -28.05 Lon: 148.60 Height: 198.5 m
Data from the previous 72 hours. | See also: Recent months at St George
Date/Time
EST
Temp
°C
App
Temp
°C
Dew
Point
°C
Rel
Hum
%
Delta-T
°C
Wind Press
QNH
hPa
Press
MSL
hPa
Rain since
9am
mm
Dir  Spd
km/h
Gust
km/h
Spd
kts
Gust
kts
07/10:00am 26.8 26.6 18.4 60 5.4 N 17 22 9 12 1012.8 1011.5 0.0
07/09:30am 25.9 25.3 17.5 59 5.3 N 17 26 9 14 1013.0 1011.8 0.0
07/09:00am 25.2 25.2 18.2 65 4.5 N 15 24 8 13 1013.1 1011.9 5.0
07/08:30am 24.2 23.7 17.7 67 4.1 N 17 24 9 13 1013.3 1012.1 5.0
07/08:00am 23.3 22.2 17.3 69 3.7 N 19 24 10 13 1013.4 1012.2 5.0
07/07:30am 22.3 21.1 16.1 68 3.8 N 17 24 9 13 1013.2 1012.0 5.0
07/07:00am 21.6 21.9 17.0 75 2.8 NNE 11 17 6 9 1013.2 1012.0 5.0
07/06:30am 20.4 21.0 16.8 80 2.2 NNE 9 13 5 7 1012.9 1011.7 5.0
07/06:00am 19.4 20.3 16.6 84 1.7 NNE 7 11 4 6 1012.9 1011.7 5.0
07/05:30am 18.2 19.1 16.0 87 1.3 NE 6 7 3 4 1012.4 1011.1 5.0
07/05:00am 18.5 19.1 15.7 84 1.7 NE 7 9 4 5 1011.7 1010.4 5.0
07/04:30am 18.9 19.5 15.8 82 1.9 NNE 7 9 4 5 1011.0 1009.7 5.0
07/04:00am 19.1 18.6 16.0 82 1.9 N 13 17 7 9 1010.5 1009.3 5.0
07/03:30am 19.3 19.2 16.0 81 2.0 N 11 15 6 8 1010.5 1009.3 5.0
07/03:00am 19.4 19.0 16.1 81 2.0 N 13 17 7 9 1010.3 1009.1 5.0
07/02:30am 19.6 19.1 15.9 79 2.2 N 13 20 7 11 1010.4 1009.2 5.0
07/02:00am 20.1 19.1 15.7 76 2.6 NNW 15 20 8 11 1010.9 1009.6 5.0
07/01:30am 19.9 18.7 16.0 78 2.3 N 17 20 9 11 1011.1 1009.8 5.0
07/01:00am 19.8 19.4 16.3 80 2.1 N 13 20 7 11 1011.6 1010.3 5.0
07/12:30am 19.7 19.0 16.3 81 2.1 N 15 20 8 11 1012.4 1011.1 5.0
07/12:00am 19.9 19.1 16.2 79 2.2 N 15 20 8 11 1013.1 1011.9 5.0
 
Date/Time
EST
Temp
°C
App
Temp
°C
Dew
Point
°C
Rel
Hum
%
Delta-T
°C
Wind Press
QNH
hPa
Press
MSL
hPa
Rain since
9am
mm
Dir  Spd
km/h
Gust
km/h
Spd
kts
Gust
kts
06/11:30pm 19.5 19.4 16.9 85 1.6 NNW 13 20 7 11 1014.2 1013.0 5.0
06/11:00pm 19.7 16.7 16.9 84 1.7 W 28 35 15 19 1015.4 1014.2 4.2
06/10:30pm 20.8 20.3 17.0 79 2.3 NW 15 22 8 12 1014.6 1013.4 3.2
06/10:00pm 20.6 21.4 17.2 81 2.1 N 9 15 5 8 1014.0 1012.8 3.2
06/09:30pm 20.6 21.3 17.0 80 2.2 NW 9 11 5 6 1014.1 1012.9 3.2
06/09:00pm 20.7 22.0 17.1 80 2.2 WNW 6 9 3 5 1013.6 1012.4 3.2
06/08:30pm 20.8 21.9 16.6 77 2.6 WSW 6 7 3 4 1013.5 1012.3 3.2
06/08:00pm 21.1 20.9 16.7 76 2.7 NNE 13 19 7 10 1012.8 1011.5 3.2
06/07:30pm 21.4 22.0 16.8 75 2.8 NNE 9 17 5 9 1012.8 1011.5 3.2
06/07:00pm 21.5 21.6 17.5 78 2.5 N 13 20 7 11 1012.2 1010.9 3.2
06/06:30pm 21.4 20.7 17.4 78 2.5 N 17 24 9 13 1011.8 1010.5 3.2
06/06:00pm 21.4 21.3 17.0 76 2.7 NNE 13 17 7 9 1011.8 1010.5 3.2
06/05:30pm 21.6 20.4 17.4 77 2.6 NNE 20 32 11 17 1010.9 1009.6 3.2
06/05:00pm 22.6 22.2 18.8 79 2.4 NNE 19 28 10 15 1011.2 1009.9 3.2
06/04:30pm 22.8 23.3 19.2 80 2.3 NNE 15 20 8 11 1011.3 1010.0 3.2
06/04:00pm 23.0 23.8 19.0 78 2.6 NNE 13 19 7 10 1011.3 1010.0 3.2
06/03:30pm 22.8 23.9 18.8 78 2.5 NE 11 19 6 10 1011.1 1009.8 3.2
06/03:00pm 22.3 22.2 18.7 80 2.3 ENE 17 24 9 13 1011.3 1010.0 3.2
06/02:30pm 22.1 23.8 18.5 80 2.3 NNE 7 9 4 5 1011.9 1010.6 2.4
06/02:00pm 23.0 22.8 17.7 72 3.3 ESE 15 19 8 10 1012.4 1011.1 0.8
06/01:30pm 24.9 24.5 17.1 62 4.9 W 15 26 8 14 1013.0 1011.8 0.0
06/01:00pm 26.8 26.4 15.2 49 7.1 NNE 11 15 6 8 1012.7 1011.4 0.0
06/12:30pm 26.8 25.8 15.5 50 6.9 N 15 20 8 11 1013.4 1012.2 0.0
06/12:00pm 26.8 26.0 15.2 49 7.1 NNE 13 17 7 9 1013.7 1012.5 0.0
06/11:30am 26.8 25.3 15.2 49 7.1 N 17 26 9 14 1013.9 1012.7 0.0
06/11:00am 26.7 24.6 14.8 48 7.2 NNE 19 28 10 15 1014.0 1012.8 0.0
06/10:30am 25.8 24.1 14.6 50 6.8 NNE 17 22 9 12 1014.3 1013.1 0.0
06/10:00am 26.2 24.9 15.9 53 6.3 NNE 17 22 9 12 1014.1 1012.9 0.0
06/09:30am 24.9 22.7 15.0 54 6.0 NE 20 30 11 16 1014.3 1013.1 0.0
06/09:00am 25.3 23.2 15.3 54 6.1 NNE 20 30 11 16 1014.4 1013.2 0.0
06/08:30am 24.1 20.9 15.3 58 5.3 NNE 26 39 14 21 1014.3 1013.1 0.0
06/08:00am 23.7 20.5 15.2 59 5.1 NE 26 39 14 21 1014.2 1013.0 0.0
06/07:30am 22.9 20.4 15.2 62 4.6 NE 22 35 12 19 1014.1 1012.9 0.0
06/07:00am 21.5 18.8 14.6 65 4.1 NE 22 32 12 17 1013.8 1012.6 0.0
06/06:30am 21.5 18.8 14.6 65 4.1 NE 22 33 12 18 1013.4 1012.2 0.0
06/06:00am 20.5 18.4 14.6 69 3.5 ENE 19 30 10 16 1013.4 1012.2 0.0
06/05:30am 20.1 17.9 14.5 70 3.3 ENE 19 26 10 14 1013.1 1011.9 0.0
06/05:00am 19.9 17.7 14.5 71 3.2 ENE 19 30 10 16 1012.8 1011.5 0.0
06/04:30am 20.2 18.5 14.8 71 3.2 ENE 17 26 9 14 1012.7 1011.4 0.0
06/04:00am 20.4 18.0 14.5 69 3.5 ENE 20 28 11 15 1012.5 1011.2 0.0
06/03:30am 20.6 18.5 14.7 69 3.5 ENE 19 28 10 15 1012.4 1011.1 0.0
06/03:00am 20.9 19.3 15.0 69 3.5 ENE 17 28 9 15 1012.4 1011.1 0.0
06/02:30am 21.1 19.1 15.0 68 3.6 ENE 19 28 10 15 1012.3 1011.0 0.0
06/02:00am 21.4 19.4 15.0 67 3.8 ENE 19 28 10 15 1012.4 1011.1 0.0
06/01:30am 21.8 19.2 14.9 65 4.1 ENE 22 37 12 20 1012.4 1011.1 0.0
06/01:00am 22.2 18.9 15.1 64 4.3 ENE 26 37 14 20 1012.4 1011.1 0.0
06/12:30am 22.5 19.6 15.1 63 4.4 ENE 24 39 13 21 1012.5 1011.2 0.0
06/12:00am 23.2 20.6 15.0 60 4.9 ENE 22 35 12 19 1012.5 1011.2 0.0
 
Date/Time
EST
Temp
°C
App
Temp
°C
Dew
Point
°C
Rel
Hum
%
Delta-T
°C
Wind Press
QNH
hPa
Press
MSL
hPa
Rain since
9am
mm
Dir  Spd
km/h
Gust
km/h
Spd
kts
Gust
kts
05/11:30pm 24.0 21.3 14.7 56 5.6 ENE 22 33 12 18 1012.5 1011.2 0.0
05/11:00pm 24.4 21.2 14.2 53 6.1 ENE 24 39 13 21 1012.4 1011.1 0.0
05/10:30pm 24.9 21.8 11.5 43 7.6 E 19 28 10 15 1012.5 1011.2 0.0
05/10:00pm 23.2 21.3 8.9 40 7.7 NE 9 13 5 7 1012.2 1010.9 0.0
05/09:30pm 22.7 21.1 11.4 49 6.4 E 11 17 6 9 1012.3 1011.0 0.0
05/09:00pm 23.0 23.5 11.7 49 6.4 CALM 0 0 0 0 1011.9 1010.6 0.0
05/08:30pm 24.1 23.7 11.1 44 7.3 W 4 6 2 3 1011.8 1010.5 0.0
05/08:00pm 24.7 23.9 10.9 42 7.8 WNW 6 9 3 5 1011.5 1010.2 0.0
05/07:30pm 25.1 25.3 10.6 40 8.2 CALM 0 0 0 0 1011.0 1009.7 0.0
05/07:00pm 27.1 26.5 7.5 29 10.6 CALM 0 0 0 0 1010.6 1009.4 0.0
05/06:30pm 28.4 26.5 6.5 25 11.7 WSW 6 7 3 4 1010.2 1009.0 0.0
05/06:00pm 30.2 26.7 3.3 18 13.8 WSW 11 13 6 7 1010.3 1009.1 0.0
05/05:30pm 30.6 27.7 4.4 19 13.7 WSW 9 13 5 7 1010.1 1008.9 0.0
05/05:00pm 31.6 28.6 0.9 14 15.2 WNW 6 9 3 5 1009.8 1008.6 0.0
05/04:30pm 31.1 27.2 1.4 15 14.8 SW 11 15 6 8 1009.8 1008.6 0.0
05/04:00pm 31.4 27.4 0.7 14 15.1 S 11 19 6 10 1009.9 1008.7 0.0
05/03:30pm 31.2 27.2 0.6 14 15.0 WSW 11 17 6 9 1009.9 1008.7 0.0
05/03:00pm 31.1 28.1 0.5 14 15.0 W 6 9 3 5 1010.3 1009.1 0.0
05/02:30pm 31.0 26.9 2.3 16 14.5 SSW 13 19 7 10 1010.7 1009.5 0.0
05/02:00pm 30.8 26.5 1.2 15 14.7 SSE 13 19 7 10 1011.2 1009.9 0.0
05/01:30pm 30.6 27.0 5.1 20 13.5 SSW 13 19 7 10 1011.6 1010.3 0.0
05/01:00pm 30.8 28.8 7.3 23 12.9 E 7 11 4 6 1011.7 1010.4 0.0
05/12:30pm 29.7 27.1 7.6 25 12.1 SE 11 22 6 12 1011.8 1010.5 0.0
05/12:00pm 29.5 27.8 8.5 27 11.7 SW 7 19 4 10 1012.3 1011.0 0.0
05/11:30am 29.2 26.6 9.3 29 11.2 SSW 13 20 7 11 1012.6 1011.3 0.0
05/11:00am 28.6 25.1 7.2 26 11.6 SW 15 26 8 14 1012.9 1011.7 0.0
05/10:30am 27.8 25.7 9.6 32 10.2 SW 11 20 6 11 1013.2 1012.0 0.0
05/10:00am 27.2 25.8 10.8 36 9.3 S 9 15 5 8 1013.2 1012.0 0.0
05/09:30am 26.4 25.7 10.1 36 9.1 NE 4 7 2 4 1013.3 1012.1 0.0
05/09:00am 24.7 23.9 10.9 42 7.8 SSE 6 11 3 6 1013.4 1012.2 0.0
05/08:30am 23.9 22.8 11.9 47 6.9 SE 9 13 5 7 1013.3 1012.1 0.0
05/08:00am 23.0 21.7 11.4 48 6.5 SE 9 15 5 8 1013.0 1011.8 0.0
05/07:30am 21.8 19.9 11.8 53 5.6 SE 13 19 7 10 1013.1 1011.9 0.0
05/07:00am 20.7 19.0 11.1 54 5.3 SSE 11 15 6 8 1013.0 1011.8 0.0
05/06:30am 19.7 18.2 10.4 55 5.1 S 9 13 5 7 1012.9 1011.7 0.0
05/06:00am 18.7 17.8 11.3 62 4.1 SSW 7 9 4 5 1012.5 1011.2 0.0
05/05:30am 17.5 15.9 8.9 57 4.5 WSW 7 9 4 5 1012.1 1010.8 0.0
05/05:00am 16.7 15.5 9.4 62 3.8 SW 6 9 3 5 1012.0 1010.7 0.0
05/04:30am 16.8 15.6 10.2 65 3.5 SW 7 9 4 5 1011.8 1010.5 0.0
05/04:00am 17.5 16.2 9.2 58 4.4 SW 6 7 3 4 1011.6 1010.3 0.0
05/03:30am 17.9 16.7 10.3 61 4.1 SSW 7 7 4 4 1011.7 1010.4 0.0
05/03:00am 18.5 17.2 9.8 57 4.7 S 7 9 4 5 1011.7 1010.4 0.0
05/02:30am 19.2 17.8 9.4 53 5.2 S 7 9 4 5 1011.7 1010.4 0.0
05/02:00am 20.5 18.0 8.2 45 6.5 SSE 11 13 6 7 1011.8 1010.5 0.0
05/01:30am 20.6 18.1 8.3 45 6.5 SSE 11 17 6 9 1012.0 1010.7 0.0
05/01:00am 20.9 18.1 8.5 45 6.6 SE 13 15 7 8 1012.1 1010.8 0.0
05/12:30am 22.0 18.5 7.4 39 7.6 SSE 15 19 8 10 1012.4 1011.1 0.0
05/12:00am 22.6 19.2 7.6 38 7.9 SSE 15 20 8 11 1012.6 1011.3 0.0
 
Date/Time
EST
Temp
°C
App
Temp
°C
Dew
Point
°C
Rel
Hum
%
Delta-T
°C
Wind Press
QNH
hPa
Press
MSL
hPa
Rain since
9am
mm
Dir  Spd
km/h
Gust
km/h
Spd
kts
Gust
kts
04/11:30pm 23.5 19.9 6.7 34 8.7 SSE 15 20 8 11 1012.5 1011.2 0.0
04/11:00pm 24.0 19.9 6.3 32 9.2 SSE 17 20 9 11 1012.5 1011.2 0.0
04/10:30pm 23.9 20.8 7.1 34 8.8 SSE 13 17 7 9 1012.5 1011.2 0.0
04/10:00pm 24.2 21.2 7.8 35 8.7 SSE 13 15 7 8 1012.3 1011.0 0.0
04/09:30pm 25.4 21.9 7.1 31 9.7 SSE 15 20 8 11 1012.1 1010.8 0.0
04/09:00pm 25.7 22.3 7.8 32 9.6 S 15 20 8 11 1011.8 1010.5 0.0
04/08:30pm 25.8 22.3 7.4 31 9.8 S 15 19 8 10 1011.4 1010.1 0.0
04/08:00pm 26.2 23.2 7.7 31 10.0 SSW 13 19 7 10 1011.1 1009.8 0.0
04/07:30pm 27.1 24.2 8.0 30 10.4 S 13 15 7 8 1010.6 1009.4 0.0
04/07:00pm 28.6 24.7 7.2 26 11.6 SSW 17 20 9 11 1010.2 1009.0 0.0
04/06:30pm 29.9 26.0 7.2 24 12.4 SSW 17 22 9 12 1009.7 1008.5 0.0
04/06:00pm 32.1 27.8 7.0 21 13.8 SSW 19 24 10 13 1009.3 1008.1 0.0
04/05:30pm 33.1 27.2 5.6 18 14.8 SW 26 35 14 19 1009.1 1007.9 0.0
04/05:00pm 33.7 28.0 6.9 19 14.8 SW 26 37 14 20 1009.0 1007.8 0.0
04/04:30pm 34.0 28.2 6.3 18 15.2 SW 26 33 14 18 1009.0 1007.8 0.0
04/04:00pm 34.4 29.3 7.5 19 15.1 SW 24 33 13 18 1009.1 1007.9 0.0
04/03:30pm 34.2 29.2 8.0 20 14.8 SW 24 35 13 19 1009.3 1008.1 0.0
04/03:00pm 34.3 28.7 8.8 21 14.6 SW 28 35 15 19 1009.6 1008.4 0.0
04/02:30pm 35.2 30.2 9.6 21 14.8 SW 26 33 14 18 1010.0 1008.8 0.0
04/02:00pm 34.8 29.0 7.8 19 15.2 SW 28 39 15 21 1010.4 1009.2 0.0
04/01:30pm 34.7 28.1 7.7 19 15.2 SW 32 43 17 23 1011.0 1009.7 0.0
04/01:00pm 34.6 31.1 13.4 27 13.0 SW 24 35 13 19 1011.3 1010.0 0.0
04/12:30pm 34.2 29.9 13.1 28 12.8 SW 28 35 15 19 1011.5 1010.2 0.0
04/12:00pm 34.1 31.4 14.6 31 12.1 SW 22 30 12 16 1011.7 1010.4 0.0
04/11:30am 33.2 30.7 15.2 33 11.3 SW 22 30 12 16 1011.9 1010.6 0.0
04/11:00am 32.4 30.7 16.3 38 10.2 SW 20 32 11 17 1012.1 1010.8 0.0
04/10:30am 31.6 30.1 16.7 40 9.5 WSW 20 28 11 15 1012.5 1011.2 0.0

Other formats

Comma delimited format used in spreadsheet applications
http://www.bom.gov.au/fwo/IDQ60801/IDQ60801.94517.axf

JavaScript Object Notation format (JSON) in row-major order
http://www.bom.gov.au/fwo/IDQ60801/IDQ60801.94517.json

Data quality

Most of these data are generated automatically and are frequently updated. Quality checks on data are not normally performed. It is possible for incorrect values to appear. Refer to information at About Latest Weather Observations and please check the disclaimer before using these data.